• Join FlightAware (Why Join?)
  • Login
  • US Flag 
11:13PM EST


 

Airport Tracker/Info


-or-


 

Live Flight TrackerFlight Track Log ✈ UAL4422 ✈ 16-Apr-2013 ✈ KIAH - KMAF

Flight Track Log - Related Links

Times and Time Zones

All times are in EDT time to prevent confusion due to time zone crossing. See the UAL4422 flight status page for this flight to view local times or setup timezone preferences in your user account.

Time Position Orientation Groundspeed Altitude Reporting Facility
EDT Latitude Longitude Course Direction KTS MPH feet Rate Location/Type
04:15PM 29.9617 -95.3436 228° Southwest 153 176 700  Level Houston Center
04:17PM 29.9089 -95.4103 228° Southwest 266 306 3,000 1,560 Climbing Houston Center
04:17PM 29.9053 -95.4169 238° Southwest 247 284 3,300 1,200 Climbing Houston Center
04:17PM 29.8722 -95.4675 233° Southwest 256 295 4,100 1,140 Climbing Houston Center
04:18PM 29.8650 -95.4792 234° Southwest 245 282 4,500 2,040 Climbing Houston Center
04:19PM 29.8306 -95.5400 237° Southwest 253 291 6,400 2,400 Climbing Houston Center
04:19PM 29.8306 -95.5661 270° West 265 305 7,000 2,100 Climbing Houston Center
04:20PM 29.8611 -95.6469 294° West 270 311 9,300 1,800 Climbing Houston Center
04:21PM 29.8942 -95.7297 295° West 282 325 10,800 1,200 Climbing Houston Center
04:22PM 29.9314 -95.8217 295° West 314 361 11,900 1,080 Climbing Houston Center
04:23PM 29.9711 -95.9225 294° West 341 392 13,100 1,380 Climbing Houston Center
04:24PM 30.0186 -96.0397 295° West 350 403 14,800 1,440 Climbing Houston Center
04:25PM 30.0589 -96.1425 294° West 352 405 16,100 1,320 Climbing Houston Center
04:26PM 30.0994 -96.2456 294° West 352 405 17,600 1,320 Climbing Houston Center
04:27PM 30.1161 -96.3556 280° West 346 398 18,900 1,260 Climbing Houston Center
04:28PM 30.1356 -96.4878 280° West 354 407 20,300 1,320 Climbing Houston Center
04:29PM 30.1542 -96.6031 281° West 360 414 21,700 1,200 Climbing Houston Center
04:30PM 30.1714 -96.7214 280° West 366 421 22,800 960 Climbing Houston Center
04:31PM 30.1892 -96.8414 280° West 373 429 23,800 960 Climbing Houston Center
04:32PM 30.2078 -96.9611 280° West 374 430 24,900 960 Climbing Houston Center
04:33PM 30.2256 -97.0853 279° West 382 440 25,900 1,200 Climbing Houston Center
04:34PM 30.2472 -97.2289 280° West 382 440 27,400 1,440 Climbing Houston Center
04:35PM 30.2633 -97.3464 279° West 368 423 28,900 1,440 Climbing Houston Center
04:36PM 30.2803 -97.4606 280° West 359 413 30,400 1,380 Climbing Houston Center
04:38PM 30.2967 -97.5728 280° West 352 405 31,800 720 Climbing Houston Center
04:39PM 30.3136 -97.6883 280° West 360 414 32,000 60 Climbing Houston Center
04:40PM 30.3303 -97.8131 279° West 384 442 32,000  Level Houston Center
04:41PM 30.3486 -97.9433 279° West 400 460 32,000  Level Houston Center
04:42PM 30.3656 -98.0706 279° West 397 457 32,000  Level Houston Center
04:43PM 30.4208 -98.2167 294° West 417 480 32,000  Level Houston Center
04:44PM 30.4744 -98.3386 297° West 420 483 32,000  Level Houston Center
04:45PM 30.5278 -98.4603 297° West 420 483 32,000  Level Houston Center
04:46PM 30.5811 -98.5808 297° West 418 481 32,000  Level Houston Center
04:47PM 30.6339 -98.7022 297° West 417 480 32,000  Level Houston Center
04:48PM 30.6864 -98.8242 297° West 417 480 32,000  Level Houston Center
04:49PM 30.7392 -98.9475 296° West 422 486 32,000  Level Houston Center
04:50PM 30.8022 -99.0933 297° West 428 493 32,000  Level Houston Center
04:51PM 30.8519 -99.2094 297° West 432 497 32,000  Level Houston Center
04:52PM 30.9056 -99.3342 297° West 433 498 32,000  Level Houston Center
04:53PM 30.9583 -99.4569 297° West 428 493 32,000  Level Houston Center
04:54PM 31.0189 -99.6031 296° West 421 484 32,000  Level Houston Center
04:55PM 31.0708 -99.7228 297° West 417 480 32,000  Level Houston Center
04:56PM 31.1217 -99.8444 296° West 418 481 32,000  Level Houston Center
04:57PM 31.1731 -99.9681 296° West 424 488 32,000 -60 Level Houston Center
04:58PM 31.2250 -100.0914 296° West 424 488 31,900 -60 Descending Houston Center
04:59PM 31.2603 -100.2431 285° West 407 468 31,900 -1,020 Level Houston Center
05:00PM 31.2728 -100.3719 277° West 402 463 29,900 -1,920 Descending Houston Center
05:01PM 31.2758 -100.4006 277° West 404 465 29,500 -1,920 Descending Fort Worth Center
05:02PM 31.3208 -100.5233 293° West 404 465 27,500 -1,800 Descending Fort Worth Center
05:03PM 31.3681 -100.6467 294° West 410 472 26,000 -840 Descending Fort Worth Center
05:04PM 31.4169 -100.7725 295° West 415 478 25,900 -720 Descending Fort Worth Center
05:05PM 31.4656 -100.8986 294° West 422 486 24,600 -1,020 Descending Fort Worth Center
05:06PM 31.5122 -101.0219 294° West 422 486 23,900 -1,560 Descending Fort Worth Center
05:07PM 31.5547 -101.1431 292° West 422 486 21,500 -2,460 Descending Fort Worth Center
05:08PM 31.6031 -101.2669 295° West 417 480 19,000 -2,580 Descending Fort Worth Center
05:09PM 31.6453 -101.3836 293° West 411 473 16,400 -2,580 Descending Fort Worth Center
05:10PM 31.6856 -101.4950 293° West 398 458 13,900 -2,400 Descending Fort Worth Center
05:11PM 31.7533 -101.5958 308° West 387 445 11,600 -1,620 Descending Fort Worth Center
05:12PM 31.8111 -101.6792 309° West 364 419 10,700 -1,140 Descending Fort Worth Center
05:13PM 31.8647 -101.7550 310° West 329 379 9,400 -1,440 Descending Fort Worth Center
05:14PM 31.9164 -101.8283 310° West 302 348 7,900 -1,440 Descending Fort Worth Center
05:15PM 31.9600 -101.8992 306° West 282 325 6,600 -1,140 Descending Fort Worth Center
05:16PM 32.0056 -101.9675 308° West 275 316 5,700 -840 Descending Fort Worth Center
05:17PM 32.0344 -102.0325 298° West 250 288 5,000 -360 Descending Fort Worth Center
05:18PM 32.0464 -102.1017 282° West 228 262 5,000 -180 Level Fort Worth Center
05:19PM 32.0586 -102.1686 282° West 223 257 4,700 -300 Descending Fort Worth Center